Time,TemperatureF,DewpointF,PressureIn,WindDirection,WindDirectionDegrees,WindSpeedMPH,WindSpeedGustMPH,Humidity,HourlyPrecipIn,Conditions,Clouds,dailyrainin,SoftwareType,DateUTC
2013-09-08 00:03:00,74.5,67.9,29.98,NNE,16,15.0,39.0,80,-0.01,,,0.00,Weather View 32 v70,2013-09-08 10:03:00,
2013-09-08 00:08:00,74.1,67.9,30.02,NNW,338,23.0,39.0,81,-0.01,,,0.00,Weather View 32 v70,2013-09-08 10:08:00,
2013-09-08 00:13:00,73.8,68.3,30.02,NW,326,21.0,38.0,83,-0.01,,,0.00,Weather View 32 v70,2013-09-08 10:13:00,
2013-09-08 00:18:00,73.8,67.9,30.02,NW,311,22.0,38.0,82,-0.01,,,0.00,Weather View 32 v70,2013-09-08 10:18:00,
2013-09-08 00:23:00,73.7,68.2,30.02,North,6,19.0,38.0,83,-0.01,,,0.00,Weather View 32 v70,2013-09-08 10:23:00,
2013-09-08 00:28:00,73.9,67.7,30.02,NNW,341,28.0,38.0,81,-0.01,,,0.00,Weather View 32 v70,2013-09-08 10:28:00,
2013-09-08 00:33:00,74.0,67.8,30.02,NNW,345,23.0,38.0,81,-0.01,,,0.00,Weather View 32 v70,2013-09-08 10:33:00,
2013-09-08 00:38:00,73.9,68.0,30.02,North,359,18.0,38.0,82,-0.01,,,0.00,Weather View 32 v70,2013-09-08 10:38:00,
2013-09-08 00:43:00,73.7,67.8,30.02,North,359,22.0,38.0,82,-0.01,,,0.00,Weather View 32 v70,2013-09-08 10:43:00,
2013-09-08 00:48:00,73.4,68.2,30.03,NNW,344,24.0,38.0,84,-0.01,,,0.00,Weather View 32 v70,2013-09-08 10:48:00,
2013-09-08 00:53:00,73.2,68.4,30.02,NNW,331,25.0,38.0,85,-0.01,,,0.00,Weather View 32 v70,2013-09-08 10:53:00,
2013-09-08 00:58:00,73.1,68.3,30.02,NNW,341,23.0,38.0,85,-0.01,,,0.00,Weather View 32 v70,2013-09-08 10:58:00,
2013-09-08 01:03:00,73.5,67.6,30.00,North,351,29.0,37.0,82,0.00,,,0.00,Weather View 32 v70,2013-09-08 11:03:00,
2013-09-08 01:08:00,73.9,67.7,30.01,North,4,19.0,37.0,81,0.00,,,0.00,Weather View 32 v70,2013-09-08 11:08:00,
2013-09-08 01:13:00,74.2,67.2,30.02,NNW,348,26.0,37.0,79,0.00,,,0.00,Weather View 32 v70,2013-09-08 11:13:00,
2013-09-08 01:18:00,74.2,67.6,30.01,NNE,15,23.0,37.0,80,0.00,,,0.00,Weather View 32 v70,2013-09-08 11:18:00,
2013-09-08 01:23:00,73.9,68.0,30.01,North,3,25.0,37.0,82,0.00,,,0.00,Weather View 32 v70,2013-09-08 11:23:00,
2013-09-08 01:28:00,73.9,67.7,30.01,North,6,22.0,37.0,81,0.00,,,0.00,Weather View 32 v70,2013-09-08 11:28:00,
2013-09-08 01:33:00,73.9,68.0,30.02,North,355,15.0,37.0,82,0.00,,,0.00,Weather View 32 v70,2013-09-08 11:33:00,
2013-09-08 01:38:00,74.0,68.1,30.02,NNE,13,16.0,37.0,82,0.00,,,0.00,Weather View 32 v70,2013-09-08 11:38:00,
2013-09-08 01:43:00,74.2,67.6,30.01,North,6,20.0,36.0,80,0.00,,,0.00,Weather View 32 v70,2013-09-08 11:43:00,
2013-09-08 01:48:00,74.3,67.0,30.02,NW,316,20.0,35.0,78,0.00,,,0.00,Weather View 32 v70,2013-09-08 11:48:00,
2013-09-08 01:53:00,74.4,67.1,30.00,NNW,341,26.0,35.0,78,0.00,,,0.00,Weather View 32 v70,2013-09-08 11:53:00,
2013-09-08 01:58:00,74.6,66.9,29.99,NNW,337,31.0,35.0,77,0.00,,,0.00,Weather View 32 v70,2013-09-08 11:58:00,
2013-09-08 02:03:00,74.6,67.3,30.00,NNW,343,14.0,35.0,78,0.00,,,0.00,Weather View 32 v70,2013-09-08 12:03:00,
2013-09-08 02:08:00,74.6,66.9,29.99,North,359,22.0,34.0,77,0.00,,,0.00,Weather View 32 v70,2013-09-08 12:08:00,
2013-09-08 02:13:00,74.2,67.2,30.00,North,360,18.0,34.0,79,0.00,,,0.00,Weather View 32 v70,2013-09-08 12:13:00,
2013-09-08 02:18:00,74.0,67.4,30.00,North,350,30.0,34.0,80,0.00,,,0.00,Weather View 32 v70,2013-09-08 12:18:00,
2013-09-08 02:23:00,73.6,68.1,30.00,North,352,18.0,34.0,83,0.00,,,0.00,Weather View 32 v70,2013-09-08 12:23:00,
2013-09-08 02:28:00,73.5,67.3,29.99,North,349,20.0,34.0,81,0.00,,,0.00,Weather View 32 v70,2013-09-08 12:28:00,
2013-09-08 02:33:00,73.6,66.3,30.00,NW,321,18.0,34.0,78,0.00,,,0.00,Weather View 32 v70,2013-09-08 12:33:00,
2013-09-08 02:38:00,74.0,66.3,29.99,NNW,347,18.0,34.0,77,0.00,,,0.00,Weather View 32 v70,2013-09-08 12:38:00,
2013-09-08 02:43:00,74.5,65.6,30.00,North,7,11.0,34.0,74,0.00,,,0.00,Weather View 32 v70,2013-09-08 12:43:00,
2013-09-08 02:48:00,74.6,65.3,30.00,NW,326,20.0,34.0,73,0.00,,,0.00,Weather View 32 v70,2013-09-08 12:48:00,
2013-09-08 02:53:00,74.9,65.2,29.99,NNE,12,9.0,34.0,72,0.00,,,0.00,Weather View 32 v70,2013-09-08 12:53:00,
2013-09-08 02:58:00,74.8,65.1,29.99,North,350,21.0,34.0,72,0.00,,,0.00,Weather View 32 v70,2013-09-08 12:58:00,
2013-09-08 03:03:00,74.5,64.8,29.99,North,353,15.0,33.0,72,0.00,,,0.00,Weather View 32 v70,2013-09-08 13:03:00,
2013-09-08 03:08:00,74.6,65.3,29.99,NNW,347,12.0,32.0,73,0.00,,,0.00,Weather View 32 v70,2013-09-08 13:08:00,
2013-09-08 03:13:00,74.9,65.2,29.98,NNW,342,11.0,32.0,72,0.00,,,0.00,Weather View 32 v70,2013-09-08 13:13:00,
2013-09-08 03:18:00,74.8,65.1,29.97,North,354,17.0,32.0,72,0.00,,,0.00,Weather View 32 v70,2013-09-08 13:18:00,
2013-09-08 03:23:00,75.0,65.3,29.97,NNW,347,16.0,29.0,72,0.00,,,0.00,Weather View 32 v70,2013-09-08 13:23:00,
2013-09-08 03:28:00,75.3,65.6,29.99,NW,318,19.0,30.0,72,0.00,,,0.00,Weather View 32 v70,2013-09-08 13:28:00,
2013-09-08 03:33:00,75.2,65.9,29.97,NNW,344,19.0,30.0,73,0.00,,,0.00,Weather View 32 v70,2013-09-08 13:33:00,
2013-09-08 03:38:00,74.9,66.0,29.99,NNW,332,19.0,30.0,74,0.00,,,0.00,Weather View 32 v70,2013-09-08 13:38:00,
2013-09-08 03:43:00,74.9,66.0,29.99,NNE,18,13.0,30.0,74,0.00,,,0.00,Weather View 32 v70,2013-09-08 13:43:00,
2013-09-08 03:48:00,74.8,66.3,29.98,NNW,345,22.0,30.0,75,0.00,,,0.00,Weather View 32 v70,2013-09-08 13:48:00,
2013-09-08 03:53:00,74.7,65.8,29.98,NW,324,12.0,30.0,74,0.00,,,0.00,Weather View 32 v70,2013-09-08 13:53:00,
2013-09-08 03:58:00,74.6,65.7,29.99,NNE,20,15.0,30.0,74,0.00,,,0.00,Weather View 32 v70,2013-09-08 13:58:00,
2013-09-08 04:03:00,74.3,65.8,29.98,North,357,22.0,30.0,75,0.00,,,0.00,Weather View 32 v70,2013-09-08 14:03:00,
2013-09-08 04:08:00,74.0,65.9,29.99,NNW,335,17.0,30.0,76,0.00,,,0.00,Weather View 32 v70,2013-09-08 14:08:00,
2013-09-08 04:13:00,74.0,65.9,29.99,North,357,19.0,30.0,76,0.00,,,0.00,Weather View 32 v70,2013-09-08 14:13:00,
2013-09-08 04:18:00,74.1,65.6,29.99,NW,326,12.0,30.0,75,0.00,,,0.00,Weather View 32 v70,2013-09-08 14:18:00,
2013-09-08 04:23:00,74.2,65.0,29.98,NNW,328,13.0,30.0,73,0.00,,,0.00,Weather View 32 v70,2013-09-08 14:23:00,
2013-09-08 04:28:00,74.4,64.7,29.98,North,349,12.0,29.0,72,0.00,,,0.00,Weather View 32 v70,2013-09-08 14:28:00,
2013-09-08 04:33:00,74.5,64.4,29.99,NNW,346,13.0,29.0,71,0.00,,,0.00,Weather View 32 v70,2013-09-08 14:33:00,
2013-09-08 04:38:00,74.7,64.6,29.98,NNW,347,26.0,29.0,71,0.00,,,0.00,Weather View 32 v70,2013-09-08 14:38:00,
2013-09-08 04:43:00,74.6,64.9,29.99,NW,312,17.0,29.0,72,0.00,,,0.00,Weather View 32 v70,2013-09-08 14:43:00,
2013-09-08 04:48:00,74.6,64.9,29.99,NNW,337,20.0,29.0,72,0.00,,,0.00,Weather View 32 v70,2013-09-08 14:48:00,
2013-09-08 04:53:00,74.8,64.7,29.99,NNW,331,19.0,29.0,71,0.00,,,0.00,Weather View 32 v70,2013-09-08 14:53:00,
2013-09-08 04:58:00,75.1,64.6,29.99,NNW,343,14.0,29.0,70,0.00,,,0.00,Weather View 32 v70,2013-09-08 14:58:00,
2013-09-08 05:03:00,75.2,64.3,30.00,NW,326,12.0,29.0,69,0.00,,,0.00,Weather View 32 v70,2013-09-08 15:03:00,
2013-09-08 05:08:00,75.2,64.7,29.99,NW,320,12.0,29.0,70,0.00,,,0.00,Weather View 32 v70,2013-09-08 15:08:00,
2013-09-08 05:13:00,74.9,64.4,29.99,North,350,12.0,29.0,70,0.00,,,0.00,Weather View 32 v70,2013-09-08 15:13:00,
2013-09-08 05:18:00,74.8,64.7,29.99,NNW,342,12.0,29.0,71,0.00,,,0.00,Weather View 32 v70,2013-09-08 15:18:00,
2013-09-08 05:23:00,74.9,65.2,29.98,East,80,22.0,31.0,72,0.00,,,0.00,Weather View 32 v70,2013-09-08 15:23:00,
2013-09-08 05:28:00,75.0,64.5,29.98,North,353,18.0,31.0,70,0.00,,,0.00,Weather View 32 v70,2013-09-08 15:28:00,
2013-09-08 05:33:00,75.6,64.7,29.99,NNW,339,20.0,31.0,69,0.00,,,0.00,Weather View 32 v70,2013-09-08 15:33:00,
2013-09-08 05:38:00,75.3,64.8,30.00,NNW,339,21.0,31.0,70,0.00,,,0.00,Weather View 32 v70,2013-09-08 15:38:00,
2013-09-08 05:43:00,75.2,64.7,30.00,NNW,339,20.0,31.0,70,0.00,,,0.00,Weather View 32 v70,2013-09-08 15:43:00,
2013-09-08 05:48:00,75.3,64.8,30.00,NW,319,22.0,31.0,70,0.00,,,0.00,Weather View 32 v70,2013-09-08 15:48:00,
2013-09-08 05:53:00,75.3,65.2,29.99,North,6,23.0,31.0,71,0.00,,,0.00,Weather View 32 v70,2013-09-08 15:53:00,
2013-09-08 05:58:00,75.0,64.5,29.99,NW,306,10.0,31.0,70,0.00,,,0.00,Weather View 32 v70,2013-09-08 15:58:00,
2013-09-08 06:03:00,75.1,65.0,30.00,NNW,345,22.0,31.0,71,0.00,,,0.00,Weather View 32 v70,2013-09-08 16:03:00,
2013-09-08 06:08:00,75.2,64.7,29.99,NE,37,12.0,31.0,70,0.00,,,0.00,Weather View 32 v70,2013-09-08 16:08:00,
2013-09-08 06:13:00,75.0,64.9,30.00,North,355,16.0,31.0,71,0.00,,,0.00,Weather View 32 v70,2013-09-08 16:13:00,
2013-09-08 06:18:00,75.0,64.9,30.00,NW,320,16.0,31.0,71,0.00,,,0.00,Weather View 32 v70,2013-09-08 16:18:00,
2013-09-08 06:23:00,74.9,64.8,29.99,NNW,344,27.0,31.0,71,0.00,,,0.00,Weather View 32 v70,2013-09-08 16:23:00,
2013-09-08 06:29:00,75.4,64.5,30.01,North,357,10.0,32.0,69,0.00,,,0.00,Weather View 32 v70,2013-09-08 16:29:00,
2013-09-08 06:34:00,75.6,64.3,30.01,North,357,20.0,32.0,68,0.00,,,0.00,Weather View 32 v70,2013-09-08 16:34:00,
2013-09-08 06:39:00,75.6,64.7,30.00,North,353,22.0,32.0,69,0.00,,,0.00,Weather View 32 v70,2013-09-08 16:39:00,
2013-09-08 06:44:00,75.6,64.7,30.00,NW,320,16.0,32.0,69,0.00,,,0.00,Weather View 32 v70,2013-09-08 16:44:00,
2013-09-08 06:49:00,75.6,64.7,30.01,NNW,341,15.0,32.0,69,0.00,,,0.00,Weather View 32 v70,2013-09-08 16:49:00,
2013-09-08 06:54:00,75.7,64.8,30.00,North,9,21.0,32.0,69,0.00,,,0.00,Weather View 32 v70,2013-09-08 16:54:00,
2013-09-08 06:59:00,75.7,64.8,30.00,North,9,14.0,32.0,69,0.00,,,0.00,Weather View 32 v70,2013-09-08 16:59:00,
2013-09-08 07:04:00,75.8,64.4,30.00,NNW,341,32.0,36.0,68,0.00,,,0.00,Weather View 32 v70,2013-09-08 17:04:00,
2013-09-08 07:09:00,76.1,64.7,30.00,NNE,29,13.0,36.0,68,0.00,,,0.00,Weather View 32 v70,2013-09-08 17:09:00,
2013-09-08 07:14:00,76.2,64.8,30.01,NNE,23,18.0,36.0,68,0.00,,,0.00,Weather View 32 v70,2013-09-08 17:14:00,
2013-09-08 07:19:00,76.4,64.2,30.01,NNW,328,16.0,36.0,66,0.00,,,0.00,Weather View 32 v70,2013-09-08 17:19:00,
2013-09-08 07:24:00,76.5,63.8,30.00,North,355,29.0,36.0,65,0.00,,,0.00,Weather View 32 v70,2013-09-08 17:24:00,
2013-09-08 07:29:00,76.8,63.7,30.01,NNE,33,15.0,36.0,64,0.00,,,0.00,Weather View 32 v70,2013-09-08 17:29:00,
2013-09-08 07:34:00,77.3,63.2,29.97,NW,315,25.0,40.0,62,0.00,,,0.00,Weather View 32 v70,2013-09-08 17:34:00,
2013-09-08 07:39:00,77.3,63.7,29.99,NNW,341,25.0,40.0,63,0.00,,,0.00,Weather View 32 v70,2013-09-08 17:39:00,
2013-09-08 07:44:00,77.1,64.4,30.02,North,355,13.0,40.0,65,0.00,,,0.00,Weather View 32 v70,2013-09-08 17:44:00,
2013-09-08 07:49:00,76.9,64.6,30.01,NE,51,19.0,40.0,66,0.00,,,0.00,Weather View 32 v70,2013-09-08 17:49:00,
2013-09-08 07:54:00,76.5,65.1,30.01,NNE,12,27.0,40.0,68,0.00,,,0.00,Weather View 32 v70,2013-09-08 17:54:00,
2013-09-08 07:59:00,76.5,65.1,30.02,North,358,14.0,40.0,68,0.00,,,0.00,Weather View 32 v70,2013-09-08 17:59:00,
2013-09-08 08:04:00,76.4,65.4,30.02,NNE,22,15.0,40.0,69,0.00,,,0.00,Weather View 32 v70,2013-09-08 18:04:00,
2013-09-08 08:09:00,76.3,66.2,30.02,North,4,21.0,40.0,71,0.00,,,0.00,Weather View 32 v70,2013-09-08 18:09:00,
2013-09-08 08:14:00,75.4,66.9,30.02,North,5,22.0,40.0,75,0.00,,,0.00,Weather View 32 v70,2013-09-08 18:14:00,
2013-09-08 08:19:00,75.1,67.0,30.02,NW,317,20.0,40.0,76,0.00,,,0.00,Weather View 32 v70,2013-09-08 18:19:00,
2013-09-08 08:24:00,75.8,66.9,30.02,North,1,14.0,40.0,74,0.00,,,0.00,Weather View 32 v70,2013-09-08 18:24:00,
2013-09-08 08:29:00,75.8,67.3,30.02,NNW,344,20.0,40.0,75,0.00,,,0.00,Weather View 32 v70,2013-09-08 18:29:00,
2013-09-08 08:34:00,76.0,67.1,30.03,NW,326,10.0,38.0,74,0.00,,,0.00,Weather View 32 v70,2013-09-08 18:34:00,
2013-09-08 08:39:00,76.0,68.2,30.01,North,10,18.0,33.0,77,0.00,,,0.00,Weather View 32 v70,2013-09-08 18:39:00,
2013-09-08 08:44:00,75.9,68.1,30.02,NNE,16,25.0,33.0,77,0.00,,,0.00,Weather View 32 v70,2013-09-08 18:44:00,
2013-09-08 08:50:00,75.4,68.0,30.02,NNE,12,18.0,33.0,78,0.00,,,0.00,Weather View 32 v70,2013-09-08 18:50:00,
2013-09-08 08:56:00,75.2,68.2,30.01,North,6,24.0,33.0,79,0.00,,,0.00,Weather View 32 v70,2013-09-08 18:56:00,
2013-09-08 09:02:00,75.4,68.8,30.03,NNE,15,13.0,33.0,80,0.00,,,0.00,Weather View 32 v70,2013-09-08 19:02:00,
2013-09-08 09:07:00,75.7,68.7,30.03,NE,35,18.0,33.0,79,0.00,,,0.00,Weather View 32 v70,2013-09-08 19:07:00,
2013-09-08 09:13:00,76.1,68.7,30.01,North,358,27.0,33.0,78,0.00,,,0.00,Weather View 32 v70,2013-09-08 19:13:00,
2013-09-08 09:19:00,76.4,69.0,30.03,NE,37,11.0,33.0,78,0.00,,,0.00,Weather View 32 v70,2013-09-08 19:19:00,
2013-09-08 09:25:00,76.5,69.1,30.03,North,7,13.0,33.0,78,0.00,,,0.00,Weather View 32 v70,2013-09-08 19:25:00,
2013-09-08 09:31:00,76.7,68.5,30.03,North,3,15.0,31.0,76,0.00,,,0.00,Weather View 32 v70,2013-09-08 19:31:00,
2013-09-08 09:37:00,77.4,69.2,30.01,North,9,22.0,32.0,76,0.00,,,0.00,Weather View 32 v70,2013-09-08 19:37:00,
2013-09-08 09:40:00,77.1,68.9,30.03,NNE,16,20.0,32.0,76,0.00,,,0.00,Weather View 32 v70,2013-09-08 19:40:00,
2013-09-08 09:44:00,76.9,68.3,30.03,NNW,343,17.0,32.0,75,0.00,,,0.00,Weather View 32 v70,2013-09-08 19:44:00,
2013-09-08 09:49:00,76.8,68.2,30.03,NNW,331,24.0,32.0,75,0.00,,,0.00,Weather View 32 v70,2013-09-08 19:49:00,
2013-09-08 09:55:00,77.0,68.4,30.03,North,9,20.0,32.0,75,0.00,,,0.00,Weather View 32 v70,2013-09-08 19:55:00,
2013-09-08 10:00:00,77.4,68.4,30.02,NNE,24,17.0,32.0,74,0.00,,,0.00,Weather View 32 v70,2013-09-08 20:00:00,
2013-09-08 10:07:00,77.4,68.4,30.03,NNE,12,14.0,32.0,74,0.00,,,0.00,Weather View 32 v70,2013-09-08 20:07:00,
2013-09-08 10:12:00,77.2,68.2,30.03,WNW,292,18.0,32.0,74,0.00,,,0.00,Weather View 32 v70,2013-09-08 20:12:00,
2013-09-08 10:18:00,78.0,69.0,30.03,NNE,29,14.0,32.0,74,0.00,,,0.00,Weather View 32 v70,2013-09-08 20:18:00,
2013-09-08 10:23:00,78.6,68.8,30.02,NNE,16,24.0,32.0,72,0.00,,,0.00,Weather View 32 v70,2013-09-08 20:23:00,
2013-09-08 10:28:00,77.8,68.4,30.02,North,4,20.0,32.0,73,0.00,,,0.00,Weather View 32 v70,2013-09-08 20:28:00,
2013-09-08 10:35:00,77.7,68.3,30.02,NNW,333,17.0,32.0,73,0.00,,,0.00,Weather View 32 v70,2013-09-08 20:35:00,
2013-09-08 10:41:00,78.0,68.2,30.02,North,352,18.0,30.0,72,0.00,,,0.00,Weather View 32 v70,2013-09-08 20:41:00,
2013-09-08 10:47:00,78.2,67.6,30.02,NNW,332,14.0,30.0,70,0.00,,,0.00,Weather View 32 v70,2013-09-08 20:47:00,
2013-09-08 10:54:00,78.8,68.1,30.03,NNE,12,10.0,30.0,70,0.00,,,0.00,Weather View 32 v70,2013-09-08 20:54:00,
2013-09-08 10:59:00,79.0,68.8,30.03,WNW,295,18.0,30.0,71,0.00,,,0.00,Weather View 32 v70,2013-09-08 20:59:00,
2013-09-08 11:05:00,79.7,69.0,30.02,NNE,14,9.0,30.0,70,0.00,,,0.00,Weather View 32 v70,2013-09-08 21:05:00,
2013-09-08 11:10:00,79.3,68.6,30.02,NNW,344,19.0,30.0,70,0.00,,,0.00,Weather View 32 v70,2013-09-08 21:10:00,
2013-09-08 11:15:00,79.1,68.8,30.02,NNW,338,18.0,30.0,71,0.00,,,0.00,Weather View 32 v70,2013-09-08 21:15:00,
2013-09-08 11:20:00,79.1,68.8,30.03,NE,35,11.0,30.0,71,0.00,,,0.00,Weather View 32 v70,2013-09-08 21:20:00,
2013-09-08 11:22:00,79.0,68.8,30.02,North,358,16.0,30.0,71,0.00,,,0.00,Weather View 32 v70,2013-09-08 21:22:00,
2013-09-08 11:25:00,78.9,68.7,30.02,NNW,341,25.0,30.0,71,0.00,,,0.00,Weather View 32 v70,2013-09-08 21:25:00,
2013-09-08 11:27:00,79.2,68.5,30.03,NNE,26,12.0,30.0,70,0.00,,,0.00,Weather View 32 v70,2013-09-08 21:27:00,
2013-09-08 11:30:00,79.3,68.2,30.02,NW,314,15.0,30.0,69,0.00,,,0.00,Weather View 32 v70,2013-09-08 21:30:00,
2013-09-08 11:33:00,79.0,67.9,30.02,NE,56,18.0,30.0,69,0.00,,,0.00,Weather View 32 v70,2013-09-08 21:33:00,
2013-09-08 11:35:00,78.9,68.7,30.02,North,349,21.0,30.0,71,0.00,,,0.00,Weather View 32 v70,2013-09-08 21:35:00,
2013-09-08 11:38:00,78.9,68.7,30.01,ENE,68,7.0,31.0,71,0.00,,,0.00,Weather View 32 v70,2013-09-08 21:38:00,
2013-09-08 11:45:00,79.8,68.7,30.01,NNW,337,21.0,31.0,69,0.00,,,0.00,Weather View 32 v70,2013-09-08 21:45:00,
2013-09-08 11:50:00,79.6,68.9,30.02,NNW,332,8.0,31.0,70,0.00,,,0.00,Weather View 32 v70,2013-09-08 21:50:00,
2013-09-08 11:55:00,79.7,69.0,30.02,NNW,337,21.0,31.0,70,0.00,,,0.00,Weather View 32 v70,2013-09-08 21:55:00,
2013-09-08 12:00:00,80.1,69.4,30.02,NW,304,13.0,31.0,70,0.00,,,0.00,Weather View 32 v70,2013-09-08 22:00:00,
2013-09-08 12:05:00,80.2,69.5,30.02,North,10,11.0,31.0,70,0.00,,,0.00,Weather View 32 v70,2013-09-08 22:05:00,
2013-09-08 12:10:00,80.2,68.6,30.02,NW,321,16.0,31.0,68,0.00,,,0.00,Weather View 32 v70,2013-09-08 22:10:00,
2013-09-08 12:12:00,80.0,68.9,30.02,NNW,338,8.0,31.0,69,0.00,,,0.00,Weather View 32 v70,2013-09-08 22:12:00,
2013-09-08 12:15:00,80.5,68.9,30.02,NE,44,15.0,31.0,68,0.00,,,0.00,Weather View 32 v70,2013-09-08 22:15:00,
2013-09-08 12:18:00,80.9,68.4,30.01,NNE,20,18.0,31.0,66,0.00,,,0.00,Weather View 32 v70,2013-09-08 22:18:00,
2013-09-08 12:20:00,80.8,68.3,30.01,NNW,337,18.0,31.0,66,0.00,,,0.00,Weather View 32 v70,2013-09-08 22:20:00,
2013-09-08 12:24:00,81.4,68.0,30.02,North,355,21.0,31.0,64,0.00,,,0.00,Weather View 32 v70,2013-09-08 22:24:00,
2013-09-08 12:30:00,81.4,68.0,30.01,North,8,13.0,31.0,64,0.00,,,0.00,Weather View 32 v70,2013-09-08 22:30:00,
2013-09-08 12:35:00,80.6,67.2,30.00,NNE,22,18.0,31.0,64,0.00,,,0.00,Weather View 32 v70,2013-09-08 22:35:00,
2013-09-08 12:41:00,80.5,67.2,30.01,NNW,334,14.0,28.0,64,0.00,,,0.00,Weather View 32 v70,2013-09-08 22:41:00,
2013-09-08 12:46:00,80.4,66.6,30.01,NNE,14,9.0,28.0,63,0.00,,,0.00,Weather View 32 v70,2013-09-08 22:46:00,
2013-09-08 12:52:00,80.7,67.8,30.01,NNE,14,18.0,28.0,65,0.00,,,0.00,Weather View 32 v70,2013-09-08 22:52:00,
2013-09-08 12:57:00,80.3,67.9,30.00,NNW,345,13.0,28.0,66,0.00,,,0.00,Weather View 32 v70,2013-09-08 22:57:00,
2013-09-08 13:04:00,81.1,68.2,29.99,NNE,12,23.0,28.0,65,0.00,,,0.00,Weather View 32 v70,2013-09-08 23:04:00,
2013-09-08 13:05:00,81.1,68.2,30.00,NNE,17,12.0,28.0,65,0.00,,,0.00,Weather View 32 v70,2013-09-08 23:05:00,
2013-09-08 13:10:00,80.7,68.2,30.00,NNW,337,15.0,28.0,66,0.00,,,0.00,Weather View 32 v70,2013-09-08 23:10:00,
2013-09-08 13:15:00,80.2,68.2,30.00,NW,312,17.0,29.0,67,0.00,,,0.00,Weather View 32 v70,2013-09-08 23:15:00,
2013-09-08 13:21:00,80.5,68.5,30.00,NW,309,20.0,29.0,67,0.00,,,0.00,Weather View 32 v70,2013-09-08 23:21:00,
2013-09-08 13:26:00,80.7,68.7,30.00,NNW,344,3.0,29.0,67,0.00,,,0.00,Weather View 32 v70,2013-09-08 23:26:00,
2013-09-08 13:31:00,80.4,68.4,30.00,NNE,12,16.0,29.0,67,0.00,,,0.00,Weather View 32 v70,2013-09-08 23:31:00,
2013-09-08 13:35:00,79.8,67.8,29.99,NNW,339,19.0,29.0,67,0.00,,,0.00,Weather View 32 v70,2013-09-08 23:35:00,
2013-09-08 13:36:00,79.9,68.3,30.00,NNW,333,17.0,29.0,68,0.00,,,0.00,Weather View 32 v70,2013-09-08 23:36:00,
2013-09-08 13:40:00,79.9,67.9,29.99,North,6,17.0,29.0,67,0.00,,,0.00,Weather View 32 v70,2013-09-08 23:40:00,
2013-09-08 13:44:00,80.1,68.5,29.99,NNW,329,19.0,29.0,68,0.00,,,0.00,Weather View 32 v70,2013-09-08 23:44:00,
2013-09-08 13:49:00,80.0,68.4,29.99,NNW,337,12.0,29.0,68,0.00,,,0.00,Weather View 32 v70,2013-09-08 23:49:00,
2013-09-08 13:55:00,80.3,68.7,29.99,NW,305,12.0,29.0,68,0.00,,,0.00,Weather View 32 v70,2013-09-08 23:55:00,
2013-09-08 14:02:00,79.8,67.8,29.98,NNW,343,20.0,29.0,67,0.00,,,0.00,Weather View 32 v70,2013-09-09 00:02:00,
2013-09-08 14:07:00,79.6,68.1,29.98,North,1,18.0,29.0,68,0.00,,,0.00,Weather View 32 v70,2013-09-09 00:07:00,
2013-09-08 14:15:00,79.6,68.1,29.98,North,349,20.0,29.0,68,0.00,,,0.00,Weather View 32 v70,2013-09-09 00:15:00,
2013-09-08 14:20:00,79.6,68.9,29.98,North,356,18.0,27.0,70,0.00,,,0.00,Weather View 32 v70,2013-09-09 00:20:00,
2013-09-08 14:25:00,79.5,68.8,29.98,NNW,341,18.0,27.0,70,0.00,,,0.00,Weather View 32 v70,2013-09-09 00:25:00,
2013-09-08 14:32:00,79.2,68.5,29.97,NNW,338,22.0,27.0,70,0.00,,,0.00,Weather View 32 v70,2013-09-09 00:32:00,
2013-09-08 14:37:00,78.9,68.7,29.98,North,2,13.0,28.0,71,0.00,,,0.00,Weather View 32 v70,2013-09-09 00:37:00,
2013-09-08 14:40:00,78.8,68.6,29.97,North,350,24.0,28.0,71,0.00,,,0.00,Weather View 32 v70,2013-09-09 00:40:00,
2013-09-08 14:42:00,78.9,68.7,29.98,North,2,13.0,28.0,71,0.00,,,0.00,Weather View 32 v70,2013-09-09 00:42:00,
2013-09-08 14:45:00,78.7,68.5,29.97,North,7,15.0,28.0,71,0.00,,,0.00,Weather View 32 v70,2013-09-09 00:45:00,
2013-09-08 14:49:00,78.6,68.8,29.97,North,4,19.0,28.0,72,0.00,,,0.00,Weather View 32 v70,2013-09-09 00:49:00,
2013-09-08 14:50:00,78.6,68.4,29.97,NNW,345,20.0,28.0,71,0.00,,,0.00,Weather View 32 v70,2013-09-09 00:50:00,
2013-09-08 14:55:00,78.9,68.7,29.97,NW,325,24.0,28.0,71,0.00,,,0.00,Weather View 32 v70,2013-09-09 00:55:00,
2013-09-08 15:03:00,78.9,68.7,29.97,NNW,330,13.0,28.0,71,0.00,,,0.00,Weather View 32 v70,2013-09-09 01:03:00,
2013-09-08 15:08:00,79.0,68.8,29.97,NNW,334,18.0,28.0,71,0.00,,,0.00,Weather View 32 v70,2013-09-09 01:08:00,
2013-09-08 15:14:00,78.9,68.7,29.96,NNW,347,21.0,28.0,71,0.00,,,0.00,Weather View 32 v70,2013-09-09 01:14:00,
2013-09-08 15:15:00,78.7,68.1,29.97,North,7,17.0,28.0,70,0.00,,,0.00,Weather View 32 v70,2013-09-09 01:15:00,
2013-09-08 15:20:00,78.6,68.4,29.98,NNW,343,18.0,28.0,71,0.00,,,0.00,Weather View 32 v70,2013-09-09 01:20:00,
2013-09-08 15:25:00,78.4,67.8,29.97,North,351,23.0,28.0,70,0.00,,,0.00,Weather View 32 v70,2013-09-09 01:25:00,
2013-09-08 15:27:00,78.3,67.7,29.96,North,354,22.0,28.0,70,0.00,,,0.00,Weather View 32 v70,2013-09-09 01:27:00,
2013-09-08 15:30:00,78.3,68.1,29.97,North,350,26.0,28.0,71,0.00,,,0.00,Weather View 32 v70,2013-09-09 01:30:00,
2013-09-08 15:32:00,78.1,67.9,29.95,North,356,19.0,28.0,71,0.00,,,0.00,Weather View 32 v70,2013-09-09 01:32:00,
2013-09-08 15:35:00,78.1,67.9,29.98,NNW,347,20.0,28.0,71,0.00,,,0.00,Weather View 32 v70,2013-09-09 01:35:00,
2013-09-08 15:38:00,78.3,67.7,29.96,NNE,18,23.0,28.0,70,0.00,,,0.00,Weather View 32 v70,2013-09-09 01:38:00,
2013-09-08 15:40:00,78.1,68.3,29.97,NNW,343,17.0,28.0,72,0.00,,,0.00,Weather View 32 v70,2013-09-09 01:40:00,
2013-09-08 15:43:00,77.9,68.1,29.96,North,355,15.0,28.0,72,0.00,,,0.00,Weather View 32 v70,2013-09-09 01:43:00,
2013-09-08 15:45:00,77.9,68.1,29.97,North,353,22.0,28.0,72,0.00,,,0.00,Weather View 32 v70,2013-09-09 01:45:00,
2013-09-08 15:48:00,77.6,68.2,29.96,North,357,22.0,28.0,73,0.00,,,0.00,Weather View 32 v70,2013-09-09 01:48:00,
2013-09-08 15:55:00,77.5,67.7,29.96,North,4,18.0,30.0,72,0.00,,,0.00,Weather View 32 v70,2013-09-09 01:55:00,
2013-09-08 16:00:00,77.3,67.9,29.98,NNW,345,21.0,30.0,73,0.00,,,0.00,Weather View 32 v70,2013-09-09 02:00:00,
2013-09-08 16:05:00,77.2,67.8,29.96,NNW,341,28.0,30.0,73,0.00,,,0.00,Weather View 32 v70,2013-09-09 02:05:00,
2013-09-08 16:10:00,77.1,67.7,29.97,North,4,17.0,30.0,73,0.00,,,0.00,Weather View 32 v70,2013-09-09 02:10:00,
2013-09-08 16:15:00,77.3,67.5,29.97,NNW,345,19.0,30.0,72,0.00,,,0.00,Weather View 32 v70,2013-09-09 02:15:00,
2013-09-08 16:20:00,77.2,67.8,29.97,NNW,347,21.0,30.0,73,0.00,,,0.00,Weather View 32 v70,2013-09-09 02:20:00,
2013-09-08 16:25:00,77.0,67.6,29.98,North,353,12.0,30.0,73,0.00,,,0.00,Weather View 32 v70,2013-09-09 02:25:00,
2013-09-08 16:30:00,77.1,67.3,29.97,North,353,14.0,30.0,72,0.00,,,0.00,Weather View 32 v70,2013-09-09 02:30:00,
2013-09-08 16:35:00,77.2,67.4,29.98,NNE,19,23.0,30.0,72,0.00,,,0.00,Weather View 32 v70,2013-09-09 02:35:00,
2013-09-08 16:40:00,77.1,67.3,29.98,WNW,301,10.0,30.0,72,0.00,,,0.00,Weather View 32 v70,2013-09-09 02:40:00,
2013-09-08 16:45:00,77.0,67.2,29.99,North,352,20.0,30.0,72,0.00,,,0.00,Weather View 32 v70,2013-09-09 02:45:00,
2013-09-08 16:50:00,76.7,67.8,29.98,NNE,25,16.0,30.0,74,0.00,,,0.00,Weather View 32 v70,2013-09-09 02:50:00,
2013-09-08 16:55:00,76.8,67.8,29.99,NW,308,12.0,28.0,74,0.00,,,0.00,Weather View 32 v70,2013-09-09 02:55:00,
2013-09-08 17:00:00,76.6,67.7,29.99,North,351,15.0,28.0,74,0.00,,,0.00,Weather View 32 v70,2013-09-09 03:00:00,
2013-09-08 17:05:00,76.4,68.2,29.97,North,355,17.0,28.0,76,0.00,,,0.00,Weather View 32 v70,2013-09-09 03:05:00,
2013-09-08 17:10:00,76.3,67.8,29.98,NNE,16,12.0,27.0,75,0.00,,,0.00,Weather View 32 v70,2013-09-09 03:10:00,
2013-09-08 17:15:00,76.3,67.8,29.98,NNE,12,5.0,27.0,75,0.00,,,0.00,Weather View 32 v70,2013-09-09 03:15:00,
2013-09-08 17:20:00,76.3,67.8,29.99,NNE,24,6.0,27.0,75,0.00,,,0.00,Weather View 32 v70,2013-09-09 03:20:00,
2013-09-08 17:25:00,76.6,67.7,29.98,NNW,340,6.0,27.0,74,0.00,,,0.00,Weather View 32 v70,2013-09-09 03:25:00,
2013-09-08 17:30:00,76.5,67.2,29.98,North,360,17.0,27.0,73,0.00,,,0.00,Weather View 32 v70,2013-09-09 03:30:00,
2013-09-08 17:35:00,76.6,66.9,29.99,North,352,10.0,30.0,72,0.00,,,0.00,Weather View 32 v70,2013-09-09 03:35:00,
2013-09-08 17:40:00,76.4,66.7,29.99,North,357,12.0,30.0,72,0.00,,,0.00,Weather View 32 v70,2013-09-09 03:40:00,
2013-09-08 17:45:00,76.5,66.4,29.99,NNW,339,11.0,30.0,71,0.00,,,0.00,Weather View 32 v70,2013-09-09 03:45:00,
2013-09-08 17:50:00,76.6,66.0,29.99,NW,320,15.0,30.0,70,0.00,,,0.00,Weather View 32 v70,2013-09-09 03:50:00,
2013-09-08 17:55:00,76.6,66.0,29.99,NNW,328,19.0,30.0,70,0.00,,,0.00,Weather View 32 v70,2013-09-09 03:55:00,
2013-09-08 18:00:00,76.7,65.7,29.99,NW,326,11.0,30.0,69,0.00,,,0.00,Weather View 32 v70,2013-09-09 04:00:00,
2013-09-08 18:01:00,76.7,65.7,29.99,NNW,332,10.0,30.0,69,0.00,,,0.00,Weather View 32 v70,2013-09-09 04:01:00,
2013-09-08 18:03:00,76.9,65.5,29.99,NW,324,11.0,30.0,68,0.00,,,0.00,Weather View 32 v70,2013-09-09 04:03:00,
2013-09-08 18:08:00,76.6,65.6,29.99,NNW,333,13.0,30.0,69,0.00,,,0.00,Weather View 32 v70,2013-09-09 04:08:00,
2013-09-08 18:13:00,76.5,66.4,29.99,WNW,287,12.0,32.0,71,0.00,,,0.00,Weather View 32 v70,2013-09-09 04:13:00,
2013-09-08 18:18:00,76.7,65.7,29.99,North,351,12.0,32.0,69,0.00,,,0.00,Weather View 32 v70,2013-09-09 04:18:00,
2013-09-08 18:23:00,76.9,65.1,29.99,West,267,8.0,32.0,67,0.00,,,0.00,Weather View 32 v70,2013-09-09 04:23:00,
2013-09-08 18:28:00,77.1,65.3,30.00,WNW,301,10.0,32.0,67,0.00,,,0.00,Weather View 32 v70,2013-09-09 04:28:00,
2013-09-08 18:33:00,77.2,65.3,30.00,NNW,331,7.0,32.0,67,0.00,,,0.00,Weather View 32 v70,2013-09-09 04:33:00,
2013-09-08 18:38:00,77.3,65.4,30.00,North,351,7.0,32.0,67,0.00,,,0.00,Weather View 32 v70,2013-09-09 04:38:00,
2013-09-08 18:43:00,77.6,65.7,30.00,NNW,338,9.0,32.0,67,0.00,,,0.00,Weather View 32 v70,2013-09-09 04:43:00,
2013-09-08 18:48:00,77.5,66.1,29.99,NW,309,22.0,32.0,68,0.00,,,0.00,Weather View 32 v70,2013-09-09 04:48:00,
2013-09-08 18:53:00,77.4,66.4,30.00,NW,305,10.0,32.0,69,0.00,,,0.00,Weather View 32 v70,2013-09-09 04:53:00,
2013-09-08 18:58:00,77.4,66.4,30.01,NW,326,10.0,32.0,69,0.00,,,0.00,Weather View 32 v70,2013-09-09 04:58:00,
2013-09-08 19:03:00,77.3,66.7,30.01,NNW,345,7.0,32.0,70,0.00,,,0.00,Weather View 32 v70,2013-09-09 05:03:00,
2013-09-08 19:08:00,77.1,66.9,30.01,NNW,344,17.0,32.0,71,0.00,,,0.00,Weather View 32 v70,2013-09-09 05:08:00,
2013-09-08 19:13:00,76.6,66.9,30.02,North,351,17.0,26.0,72,0.00,,,0.00,Weather View 32 v70,2013-09-09 05:13:00,
2013-09-08 19:18:00,76.5,67.2,30.01,NNE,24,19.0,26.0,73,0.00,,,0.00,Weather View 32 v70,2013-09-09 05:18:00,
2013-09-08 19:23:00,76.4,67.1,30.02,NNW,348,9.0,24.0,73,0.00,,,0.00,Weather View 32 v70,2013-09-09 05:23:00,
2013-09-08 19:28:00,76.3,67.0,30.03,North,352,4.0,24.0,73,0.00,,,0.00,Weather View 32 v70,2013-09-09 05:28:00,
2013-09-08 19:33:00,76.1,67.2,30.02,NNE,33,11.0,24.0,74,0.00,,,0.00,Weather View 32 v70,2013-09-09 05:33:00,
2013-09-08 19:38:00,76.0,67.1,30.02,North,357,17.0,24.0,74,0.00,,,0.00,Weather View 32 v70,2013-09-09 05:38:00,
2013-09-08 19:43:00,75.7,66.8,30.02,North,10,17.0,24.0,74,0.00,,,0.00,Weather View 32 v70,2013-09-09 05:43:00,
2013-09-08 19:48:00,75.4,66.9,30.03,NNW,347,13.0,24.0,75,0.00,,,0.00,Weather View 32 v70,2013-09-09 05:48:00,
2013-09-08 19:53:00,75.6,66.3,30.03,North,350,13.0,24.0,73,0.00,,,0.00,Weather View 32 v70,2013-09-09 05:53:00,
2013-09-08 19:58:00,75.8,66.1,30.03,NNW,347,13.0,24.0,72,0.00,,,0.00,Weather View 32 v70,2013-09-09 05:58:00,
2013-09-08 20:04:00,76.4,65.9,30.04,NNW,339,11.0,24.0,70,0.00,,,0.00,Weather View 32 v70,2013-09-09 06:04:00,
2013-09-08 20:09:00,76.6,65.2,30.04,NNW,341,10.0,24.0,68,0.00,,,0.00,Weather View 32 v70,2013-09-09 06:09:00,
2013-09-08 20:14:00,76.6,65.2,30.04,NNW,337,5.0,24.0,68,0.00,,,0.00,Weather View 32 v70,2013-09-09 06:14:00,
2013-09-08 20:19:00,76.4,66.7,30.04,NNW,332,12.0,24.0,72,0.00,,,0.00,Weather View 32 v70,2013-09-09 06:19:00,
2013-09-08 20:24:00,76.4,66.7,30.04,NNW,338,13.0,24.0,72,0.00,,,0.00,Weather View 32 v70,2013-09-09 06:24:00,
2013-09-08 20:29:00,76.2,66.1,30.04,NNW,336,14.0,24.0,71,0.00,,,0.00,Weather View 32 v70,2013-09-09 06:29:00,
2013-09-08 20:34:00,75.8,65.3,30.05,NNW,337,9.0,24.0,70,0.00,,,0.00,Weather View 32 v70,2013-09-09 06:34:00,